Time;durP1;ratioP1;P1;durP2;ratioP2;P2;SDS_P1;SDS_P2;PMS_P1;PMS_P2;Temp;Humidity;BMP_temperature;BMP_pressure;BME280_temperature;BME280_humidity;BME280_pressure;Samples;Min_cycle;Max_cycle;Signal;HPM_P1;HPM_P2
2022/07/10 00:00:09;;;;;;;7.20;6.70;;;19.90;99.90;;;;;;10354016;28;20203;-79
2022/07/10 00:05:17;;;;;;;7.40;7.00;;;19.80;99.90;;;;;;10362056;28;20305;-79
2022/07/10 00:10:21;;;;;;;7.00;6.60;;;19.80;99.90;;;;;;10331440;28;20223;-79
2022/07/10 00:15:24;;;;;;;7.00;6.57;;;19.80;99.90;;;;;;10354892;28;20223;-78
2022/07/10 00:20:26;;;;;;;6.80;6.40;;;19.80;99.90;;;;;;10356169;28;20221;-79
2022/07/10 00:25:30;;;;;;;6.60;6.20;;;19.90;99.90;;;;;;10338035;28;20276;-79
2022/07/10 00:30:32;;;;;;;7.17;6.73;;;19.90;99.90;;;;;;10343542;28;20211;-79
2022/07/10 00:35:34;;;;;;;6.63;5.87;;;20.00;99.90;;;;;;10347396;28;20188;-78
2022/07/10 00:40:37;;;;;;;7.30;6.80;;;20.00;99.90;;;;;;10330852;28;20211;-77
2022/07/10 00:45:39;;;;;;;6.13;5.63;;;20.00;99.90;;;;;;10499263;22;20225;-82
2022/07/10 00:50:43;;;;;;;5.83;5.33;;;20.10;99.90;;;;;;10520796;28;20229;-81
2022/07/10 00:55:46;;;;;;;7.87;6.20;;;20.10;99.90;;;;;;10519067;28;20205;-82
2022/07/10 01:00:48;;;;;;;6.37;5.97;;;20.00;99.90;;;;;;10498691;28;20288;-80
2022/07/10 01:05:50;;;;;;;5.63;5.33;;;20.00;99.90;;;;;;10500101;28;20266;-81
2022/07/10 01:10:54;;;;;;;5.40;5.00;;;20.00;99.90;;;;;;10505709;28;20271;-80
2022/07/10 01:15:56;;;;;;;6.00;5.60;;;19.90;99.90;;;;;;10501570;28;20598;-82
2022/07/10 01:21:03;;;;;;;5.60;5.30;;;19.80;99.90;;;;;;10488132;28;20205;-79
2022/07/10 01:26:05;;;;;;;4.90;4.60;;;19.70;99.90;;;;;;10479334;28;20225;-80
2022/07/10 01:31:07;;;;;;;5.80;5.40;;;19.60;99.90;;;;;;10487616;28;20215;-79
2022/07/10 01:36:11;;;;;;;5.60;5.30;;;19.50;99.90;;;;;;10490839;28;20667;-80
2022/07/10 01:41:13;;;;;;;5.17;4.87;;;19.50;99.90;;;;;;10489609;28;20208;-79
2022/07/10 01:46:16;;;;;;;5.40;5.00;;;19.40;99.90;;;;;;10505468;28;20347;-81
2022/07/10 01:51:19;;;;;;;5.77;5.40;;;19.40;99.90;;;;;;10503550;28;20273;-80
2022/07/10 01:56:21;;;;;;;5.60;5.30;;;19.30;99.90;;;;;;10504272;28;20200;-80
2022/07/10 02:01:23;;;;;;;6.20;5.90;;;19.30;99.90;;;;;;10490963;28;20192;-79
2022/07/10 02:06:27;;;;;;;6.27;5.87;;;19.20;99.60;;;;;;10506436;28;20216;-79
2022/07/10 02:11:29;;;;;;;6.80;6.33;;;19.20;99.50;;;;;;10488548;28;20216;-80
2022/07/10 02:16:31;;;;;;;8.17;7.60;;;19.20;99.80;;;;;;10504459;28;20207;-79
2022/07/10 02:21:34;;;;;;;8.40;7.70;;;19.20;99.20;;;;;;10505390;28;20200;-80
2022/07/10 02:26:36;;;;;;;8.00;7.40;;;19.20;99.90;;;;;;10504676;28;20293;-80
2022/07/10 02:31:40;;;;;;;11.73;10.70;;;19.20;99.50;;;;;;10505134;28;20726;-80
2022/07/10 02:36:43;;;;;;;12.67;11.67;;;19.30;99.40;;;;;;10505201;28;20201;-80
2022/07/10 02:41:45;;;;;;;11.80;10.90;;;19.30;99.60;;;;;;10504355;28;20225;-80
2022/07/10 02:46:48;;;;;;;13.33;12.43;;;19.40;99.30;;;;;;10505385;28;20234;-80
2022/07/10 02:51:52;;;;;;;12.60;11.70;;;19.50;99.20;;;;;;10506921;28;20220;-79
2022/07/10 02:56:54;;;;;;;14.60;13.43;;;19.50;98.90;;;;;;10503600;28;20197;-80
2022/07/10 03:01:56;;;;;;;13.00;12.00;;;19.50;99.10;;;;;;10504462;28;20208;-80
2022/07/10 03:07:00;;;;;;;13.37;12.20;;;19.60;99.00;;;;;;10504616;28;20288;-80
2022/07/10 03:12:02;;;;;;;9.13;8.47;;;19.60;98.90;;;;;;10504994;28;20581;-80
2022/07/10 03:17:05;;;;;;;12.93;12.03;;;19.60;99.10;;;;;;10503380;28;20201;-80
2022/07/10 03:22:08;;;;;;;11.03;10.10;;;19.70;98.70;;;;;;10503767;28;20329;-80
2022/07/10 03:27:10;;;;;;;11.63;10.60;;;19.70;98.20;;;;;;10504662;28;20234;-80
2022/07/10 03:32:12;;;;;;;10.40;9.60;;;19.70;99.00;;;;;;10489705;28;20231;-80
2022/07/10 03:37:16;;;;;;;10.47;9.57;;;19.70;97.50;;;;;;10503253;28;20193;-80
2022/07/10 03:42:18;;;;;;;11.57;10.37;;;19.60;98.40;;;;;;10503676;28;20228;-81
2022/07/10 03:47:20;;;;;;;9.63;8.93;;;19.60;98.40;;;;;;10487818;28;20200;-80
2022/07/10 03:52:23;;;;;;;11.07;10.07;;;19.50;98.70;;;;;;10503200;28;20236;-80
2022/07/10 04:02:45;;;;;;;10.40;9.60;;;19.40;98.60;;;;;;10502886;28;20588;-80
2022/07/10 04:07:48;;;;;;;11.30;10.50;;;19.40;98.30;;;;;;10502243;28;20729;-79
2022/07/10 04:12:50;;;;;;;11.40;10.33;;;19.50;98.30;;;;;;10503539;28;20224;-79
2022/07/10 04:17:53;;;;;;;12.40;11.27;;;19.50;98.60;;;;;;10501265;28;20197;-81
2022/07/10 04:22:57;;;;;;;11.13;10.33;;;19.50;97.80;;;;;;10501673;28;20213;-80
2022/07/10 04:27:59;;;;;;;11.03;10.03;;;19.50;98.50;;;;;;10503099;28;20288;-80
2022/07/10 04:33:01;;;;;;;12.80;10.20;;;19.50;98.50;;;;;;10503519;28;20248;-80
2022/07/10 04:38:05;;;;;;;10.20;9.30;;;19.60;98.10;;;;;;10500086;28;20210;-80
2022/07/10 04:43:07;;;;;;;10.00;8.80;;;19.50;97.80;;;;;;10499822;28;20247;-80
2022/07/10 04:48:09;;;;;;;8.80;8.10;;;19.50;97.50;;;;;;10500396;28;20212;-81
2022/07/10 04:53:13;;;;;;;8.50;7.77;;;19.50;97.50;;;;;;10501068;28;20259;-79
2022/07/10 04:58:15;;;;;;;8.20;7.27;;;19.50;97.20;;;;;;10499306;28;20211;-80
2022/07/10 05:03:17;;;;;;;7.27;6.67;;;19.60;98.10;;;;;;10499226;28;20220;-80
2022/07/10 05:08:21;;;;;;;8.33;7.73;;;19.70;97.20;;;;;;10500248;28;20200;-80
2022/07/10 05:13:23;;;;;;;7.43;6.90;;;19.70;97.00;;;;;;10500790;28;20779;-79
2022/07/10 05:18:25;;;;;;;6.87;6.27;;;19.80;96.90;;;;;;10497971;28;20570;-79
2022/07/10 05:23:28;;;;;;;6.63;6.13;;;19.90;96.00;;;;;;10498980;28;20224;-80
2022/07/10 05:28:31;;;;;;;6.87;6.37;;;19.90;95.70;;;;;;10500695;28;20200;-80
2022/07/10 05:33:33;;;;;;;5.57;5.00;;;19.80;95.10;;;;;;10494537;28;20235;-80
2022/07/10 05:38:37;;;;;;;6.10;5.40;;;19.90;95.10;;;;;;10499797;28;20711;-81
2022/07/10 05:43:39;;;;;;;6.63;4.77;;;19.80;95.60;;;;;;10499432;28;20653;-80
2022/07/10 05:48:41;;;;;;;6.50;4.60;;;19.90;95.30;;;;;;10498259;28;20204;-81
2022/07/10 05:53:44;;;;;;;4.30;3.90;;;19.90;93.70;;;;;;10499963;28;20711;-80
2022/07/10 05:58:46;;;;;;;4.60;4.23;;;19.90;93.60;;;;;;10499268;28;20292;-80
2022/07/10 06:03:48;;;;;;;3.80;3.50;;;20.00;94.00;;;;;;10500121;28;20208;-80
2022/07/10 06:08:52;;;;;;;4.03;3.73;;;20.20;92.80;;;;;;10495135;28;20279;-79
2022/07/10 06:13:54;;;;;;;4.57;4.10;;;20.30;92.10;;;;;;10502883;28;20208;-80
2022/07/10 06:18:56;;;;;;;4.77;3.10;;;20.40;92.00;;;;;;10507576;28;20197;-80
2022/07/10 06:24:00;;;;;;;4.37;3.70;;;20.50;92.00;;;;;;10505076;28;20692;-80
2022/07/10 06:29:02;;;;;;;3.80;3.20;;;20.50;91.40;;;;;;10506845;28;20227;-81
2022/07/10 06:34:04;;;;;;;3.70;3.40;;;20.60;91.10;;;;;;10507872;28;20224;-80
2022/07/10 06:39:07;;;;;;;3.70;3.40;;;20.60;90.40;;;;;;10506319;28;20552;-80
2022/07/10 06:44:09;;;;;;;3.20;3.00;;;20.60;90.20;;;;;;10490999;28;20315;-83
2022/07/10 06:49:12;;;;;;;3.97;3.57;;;20.60;90.20;;;;;;10515557;28;20204;-83
2022/07/10 06:54:15;;;;;;;4.80;3.27;;;20.60;89.10;;;;;;10510112;28;20715;-83
2022/07/10 06:59:17;;;;;;;3.20;2.90;;;20.60;88.00;;;;;;10507511;28;20197;-83
2022/07/10 07:04:19;;;;;;;3.70;2.60;;;20.60;88.20;;;;;;10508256;28;20633;-82
2022/07/10 07:09:23;;;;;;;4.60;3.30;;;20.70;88.30;;;;;;10507500;28;20223;-83
2022/07/10 07:14:25;;;;;;;3.50;3.23;;;20.80;85.90;;;;;;10507958;28;20248;-83
2022/07/10 07:19:31;;;;;;;4.50;3.20;;;20.80;86.10;;;;;;10505397;28;20185;-82
2022/07/10 07:24:35;;;;;;;3.20;2.90;;;20.90;86.20;;;;;;10504359;28;20239;-82
2022/07/10 07:29:37;;;;;;;3.53;3.00;;;21.00;84.50;;;;;;10503877;28;20232;-83
2022/07/10 07:34:39;;;;;;;3.30;2.83;;;20.80;86.70;;;;;;10504373;28;20672;-83
2022/07/10 07:39:42;;;;;;;2.67;2.47;;;20.70;85.60;;;;;;10486688;28;20282;-83
2022/07/10 07:44:44;;;;;;;2.70;2.50;;;20.60;85.80;;;;;;10504993;28;20335;-82
2022/07/10 07:49:46;;;;;;;3.20;2.97;;;20.70;86.50;;;;;;10509836;28;20227;-82
2022/07/10 07:54:50;;;;;;;3.30;2.70;;;20.80;83.30;;;;;;10488746;28;20706;-83
2022/07/10 07:59:53;;;;;;;2.50;2.30;;;20.80;83.80;;;;;;10487784;28;20237;-82
2022/07/10 08:04:55;;;;;;;2.87;2.50;;;21.00;82.10;;;;;;10505312;28;20265;-83
2022/07/10 08:09:58;;;;;;;3.20;3.00;;;21.20;81.10;;;;;;10504848;28;20625;-81
2022/07/10 08:15:00;;;;;;;2.73;2.53;;;21.40;81.50;;;;;;10507468;28;20220;-83
2022/07/10 08:20:03;;;;;;;3.03;2.70;;;21.50;81.90;;;;;;10498268;28;20203;-78
2022/07/10 08:25:07;;;;;;;3.03;2.67;;;21.60;80.30;;;;;;10477609;28;20718;-80
2022/07/10 08:30:11;;;;;;;2.80;2.50;;;21.90;80.20;;;;;;10494657;28;20439;-80
2022/07/10 08:35:13;;;;;;;4.57;2.27;;;22.10;78.90;;;;;;10495068;28;20209;-82
2022/07/10 08:40:18;;;;;;;3.00;2.50;;;22.30;74.50;;;;;;10493236;28;20196;-83
2022/07/10 08:45:20;;;;;;;2.40;2.30;;;22.10;76.30;;;;;;10493665;28;20217;-79
2022/07/10 08:50:24;;;;;;;3.43;2.50;;;22.20;77.60;;;;;;10495800;28;20582;-79
2022/07/10 08:55:28;;;;;;;2.60;2.40;;;22.40;75.80;;;;;;10495194;28;20221;-80
2022/07/10 09:00:30;;;;;;;3.87;2.70;;;22.40;74.70;;;;;;10496622;28;20549;-80
2022/07/10 09:05:32;;;;;;;3.10;2.83;;;22.80;75.20;;;;;;10496174;28;20247;-81
2022/07/10 09:10:36;;;;;;;2.50;2.30;;;23.20;73.10;;;;;;10495687;28;20240;-80
2022/07/10 09:15:38;;;;;;;2.13;2.03;;;23.40;71.20;;;;;;10493493;28;20219;-79
2022/07/10 09:20:42;;;;;;;2.90;2.70;;;23.30;70.90;;;;;;10476318;28;20211;-78
2022/07/10 09:25:47;;;;;;;3.43;2.67;;;23.40;71.60;;;;;;10494563;28;20299;-80
2022/07/10 09:30:50;;;;;;;2.93;2.73;;;23.40;68.80;;;;;;10497095;28;20680;-79
2022/07/10 09:36:06;;;;;;;2.40;2.30;;;23.40;69.60;;;;;;10500193;28;20227;-79
2022/07/10 09:41:15;;;;;;;2.47;2.10;;;23.50;69.50;;;;;;10470553;28;20238;-78
2022/07/10 09:46:18;;;;;;;2.87;2.70;;;23.50;68.00;;;;;;10494336;28;20227;-80
2022/07/10 09:51:23;;;;;;;2.40;2.10;;;23.30;68.10;;;;;;10480515;28;20308;-79
2022/07/10 09:56:28;;;;;;;4.97;2.53;;;23.00;67.20;;;;;;10487179;28;20230;-78
2022/07/10 10:01:30;;;;;;;2.70;2.30;;;23.80;68.10;;;;;;10504847;28;20597;-78
2022/07/10 10:06:37;;;;;;;2.57;2.37;;;24.90;64.70;;;;;;10489824;28;20290;-79
2022/07/10 10:11:44;;;;;;;1.90;1.80;;;25.50;63.00;;;;;;10518898;28;20319;-79
2022/07/10 10:16:48;;;;;;;4.30;3.33;;;25.70;61.20;;;;;;10487795;28;20649;-83
2022/07/10 10:21:50;;;;;;;6.93;3.33;;;25.50;60.50;;;;;;10520551;28;20266;-83
2022/07/10 10:26:54;;;;;;;2.87;2.50;;;25.00;61.20;;;;;;10504272;28;20208;-83
2022/07/10 10:31:57;;;;;;;4.40;2.70;;;24.90;62.70;;;;;;10523169;28;20228;-81
2022/07/10 10:36:59;;;;;;;2.77;2.57;;;24.80;62.40;;;;;;10493626;28;20733;-83
2022/07/10 10:42:06;;;;;;;2.80;2.60;;;24.60;61.60;;;;;;10522387;28;20223;-83
2022/07/10 10:47:09;;;;;;;2.77;2.47;;;24.20;63.00;;;;;;10487267;28;20580;-83
2022/07/10 10:52:15;;;;;;;2.73;2.53;;;23.80;61.90;;;;;;10499895;28;20248;-80
2022/07/10 10:57:19;;;;;;;3.37;3.07;;;23.60;63.00;;;;;;10483157;28;20201;-80
2022/07/10 11:02:22;;;;;;;3.43;2.30;;;23.40;61.90;;;;;;10500977;28;20243;-81
2022/07/10 11:07:52;;;;;;;2.33;2.13;;;23.20;62.20;;;;;;10503718;28;20204;-83
2022/07/10 11:13:02;;;;;;;2.67;2.47;;;22.90;64.40;;;;;;10501089;28;20224;-82
2022/07/10 11:18:06;;;;;;;3.10;2.80;;;23.00;63.40;;;;;;10494916;28;20204;-81
2022/07/10 11:23:32;;;;;;;3.67;2.33;;;22.90;64.00;;;;;;10488591;28;20304;-81
2022/07/10 11:28:48;;;;;;;2.90;2.60;;;22.90;62.90;;;;;;10485639;28;20246;-82
2022/07/10 11:33:53;;;;;;;4.80;2.67;;;23.00;64.00;;;;;;10497637;28;20224;-80
2022/07/10 11:38:59;;;;;;;2.70;2.50;;;23.20;62.40;;;;;;10474640;28;20692;-81
2022/07/10 11:44:04;;;;;;;3.40;2.00;;;23.20;60.80;;;;;;10495107;28;20228;-82
2022/07/10 11:49:08;;;;;;;4.80;2.10;;;23.00;59.30;;;;;;10495294;28;20615;-82
2022/07/10 11:54:12;;;;;;;2.13;2.03;;;22.80;59.20;;;;;;10493070;28;20244;-82
2022/07/10 11:59:16;;;;;;;3.00;2.20;;;22.70;60.60;;;;;;10487537;28;20262;-80
2022/07/10 12:04:22;;;;;;;2.60;2.40;;;22.70;61.20;;;;;;10479559;28;20407;-79
2022/07/10 12:09:25;;;;;;;2.37;2.17;;;22.50;60.40;;;;;;10488737;28;20211;-79
2022/07/10 12:14:28;;;;;;;2.23;2.13;;;22.40;60.40;;;;;;10471774;28;20228;-80
2022/07/10 12:19:37;;;;;;;1.93;1.80;;;22.50;60.30;;;;;;10471114;28;20601;-81
2022/07/10 12:24:39;;;;;;;4.10;2.17;;;22.60;60.00;;;;;;10489694;28;20216;-81
2022/07/10 12:29:43;;;;;;;2.50;2.23;;;22.50;59.80;;;;;;10478402;28;20196;-81
2022/07/10 12:34:46;;;;;;;1.90;1.80;;;22.60;58.60;;;;;;10496363;28;20256;-81
2022/07/10 12:39:50;;;;;;;2.10;2.00;;;22.70;58.90;;;;;;10479483;28;20663;-81
2022/07/10 12:44:55;;;;;;;2.00;1.90;;;22.70;58.40;;;;;;10534426;22;20235;-84
2022/07/10 12:49:58;;;;;;;2.40;2.17;;;22.80;58.20;;;;;;10493026;28;20207;-84
2022/07/10 12:55:13;;;;;;;3.63;2.40;;;22.70;57.90;;;;;;10514923;28;20234;-81
2022/07/10 13:00:19;;;;;;;2.97;2.43;;;22.50;57.90;;;;;;10505294;28;20207;-83
2022/07/10 13:05:30;;;;;;;1.80;1.70;;;22.40;59.40;;;;;;10522200;28;20223;-82
2022/07/10 13:10:32;;;;;;;2.43;2.00;;;22.40;57.70;;;;;;10520792;28;20295;-82
2022/07/10 13:15:39;;;;;;;1.60;1.50;;;22.40;56.20;;;;;;10507708;28;20230;-82
2022/07/10 13:20:41;;;;;;;2.20;2.00;;;22.30;57.40;;;;;;10518992;28;20231;-82
2022/07/10 13:25:43;;;;;;;1.93;1.77;;;22.30;57.70;;;;;;10511127;28;20223;-83
2022/07/10 13:30:47;;;;;;;1.93;1.70;;;22.30;58.10;;;;;;10508581;28;20227;-86
2022/07/10 13:35:49;;;;;;;1.80;1.57;;;22.30;57.20;;;;;;10493016;28;20295;-85
2022/07/10 13:40:51;;;;;;;2.50;2.30;;;22.30;57.80;;;;;;10503963;28;20231;-86
2022/07/10 13:45:55;;;;;;;2.13;2.03;;;22.20;58.80;;;;;;10515512;28;20268;-84
2022/07/10 13:50:57;;;;;;;1.80;1.70;;;22.20;57.40;;;;;;10547816;28;20216;-84
2022/07/10 13:56:00;;;;;;;1.97;1.87;;;22.20;58.20;;;;;;10541596;28;20224;-82
2022/07/10 14:01:03;;;;;;;1.93;1.83;;;22.20;58.40;;;;;;10548844;28;20203;-83
2022/07/10 14:06:06;;;;;;;1.90;1.80;;;22.20;58.80;;;;;;10554002;28;20220;-82
2022/07/10 14:11:08;;;;;;;2.00;1.73;;;22.10;59.10;;;;;;10544837;28;20216;-84
2022/07/10 14:16:11;;;;;;;3.00;1.87;;;22.20;58.10;;;;;;10537857;28;20217;-82
2022/07/10 14:21:14;;;;;;;2.00;1.90;;;22.10;58.10;;;;;;10548065;28;20253;-81
2022/07/10 14:26:16;;;;;;;2.30;2.00;;;22.00;58.90;;;;;;10548897;28;20234;-82
2022/07/10 14:31:19;;;;;;;1.90;1.80;;;22.00;58.00;;;;;;10545500;28;20208;-82
2022/07/10 14:36:22;;;;;;;2.13;1.70;;;22.10;59.20;;;;;;10505469;28;20239;-82
2022/07/10 14:41:25;;;;;;;1.93;1.83;;;22.00;58.30;;;;;;10524879;28;20568;-81
2022/07/10 14:46:28;;;;;;;7.20;1.97;;;22.00;57.90;;;;;;10540045;28;20250;-83
2022/07/10 14:51:31;;;;;;;1.93;1.83;;;22.00;57.60;;;;;;10503716;28;20262;-83
2022/07/10 14:56:36;;;;;;;1.80;1.70;;;21.90;58.30;;;;;;10519722;28;20231;-83
2022/07/10 15:01:39;;;;;;;2.47;1.70;;;21.70;59.00;;;;;;10538548;28;20199;-83
2022/07/10 15:06:41;;;;;;;2.00;1.80;;;21.70;58.60;;;;;;10533404;28;20251;-81
2022/07/10 15:11:43;;;;;;;2.80;2.00;;;21.70;58.10;;;;;;10537169;28;20219;-82
2022/07/10 15:16:47;;;;;;;3.17;2.00;;;21.70;58.80;;;;;;10518707;28;20203;-83
2022/07/10 15:21:49;;;;;;;1.83;1.50;;;21.70;57.80;;;;;;10520454;28;20286;-83
2022/07/10 15:26:52;;;;;;;2.43;1.70;;;21.70;58.20;;;;;;10530543;28;20294;-84
2022/07/10 15:31:55;;;;;;;1.90;1.80;;;21.70;57.40;;;;;;10521362;28;20224;-83
2022/07/10 15:36:57;;;;;;;2.37;2.00;;;21.70;58.00;;;;;;10515835;28;20303;-83
2022/07/10 15:41:59;;;;;;;2.03;1.77;;;21.70;57.10;;;;;;10534358;28;20204;-83
2022/07/10 15:47:03;;;;;;;1.90;1.80;;;21.60;58.20;;;;;;10532943;28;20234;-83
2022/07/10 15:52:06;;;;;;;2.10;1.90;;;21.70;57.10;;;;;;10512275;28;20545;-83
2022/07/10 15:57:09;;;;;;;2.50;2.03;;;21.70;57.50;;;;;;10529438;28;20554;-84
2022/07/10 16:02:13;;;;;;;1.60;1.50;;;21.80;57.00;;;;;;10520236;28;20627;-83
2022/07/10 16:07:15;;;;;;;1.43;1.40;;;22.00;56.30;;;;;;10539087;28;20266;-83
2022/07/10 16:12:17;;;;;;;5.83;1.80;;;21.90;57.30;;;;;;10540484;28;20224;-81
2022/07/10 16:17:21;;;;;;;1.83;1.63;;;21.80;57.40;;;;;;10532474;28;20554;-81
2022/07/10 16:22:23;;;;;;;1.63;1.53;;;21.80;57.40;;;;;;10540854;28;20239;-80
2022/07/10 16:27:25;;;;;;;1.93;1.70;;;21.80;57.50;;;;;;10503734;28;20250;-81
2022/07/10 16:32:28;;;;;;;1.67;1.57;;;21.80;57.50;;;;;;10541501;28;20236;-81
2022/07/10 16:37:30;;;;;;;2.50;1.60;;;21.80;57.90;;;;;;10542019;28;20225;-81
2022/07/10 16:42:33;;;;;;;1.90;1.80;;;21.80;57.60;;;;;;10540833;28;20227;-81
2022/07/10 16:47:36;;;;;;;1.83;1.50;;;21.90;56.90;;;;;;10540235;28;20199;-80
2022/07/10 16:52:41;;;;;;;3.10;1.70;;;21.90;57.20;;;;;;10529438;28;20616;-83
2022/07/10 16:57:43;;;;;;;1.87;1.77;;;22.00;57.30;;;;;;10530120;28;20711;-83
2022/07/10 17:02:46;;;;;;;2.50;2.20;;;22.10;57.50;;;;;;10547576;28;20227;-83
2022/07/10 17:07:48;;;;;;;2.67;2.33;;;22.20;58.60;;;;;;10542672;28;20738;-82
2022/07/10 17:12:51;;;;;;;3.23;1.97;;;22.30;58.30;;;;;;10539702;28;20224;-82
2022/07/10 17:17:55;;;;;;;2.30;1.90;;;22.40;56.90;;;;;;10543903;28;20267;-82
2022/07/10 17:23:00;;;;;;;1.87;1.70;;;22.20;56.70;;;;;;10528088;28;20246;-83
2022/07/10 17:28:02;;;;;;;1.97;1.70;;;22.10;57.70;;;;;;10525079;28;20204;-82
2022/07/10 17:33:07;;;;;;;2.40;1.70;;;22.00;57.30;;;;;;10549749;28;20247;-80
2022/07/10 17:38:09;;;;;;;3.10;2.00;;;21.90;58.30;;;;;;10551586;28;20274;-81
2022/07/10 17:43:11;;;;;;;2.10;1.90;;;21.80;58.60;;;;;;10552858;28;20694;-82
2022/07/10 17:48:20;;;;;;;2.10;2.00;;;21.60;59.80;;;;;;10548884;28;20200;-81
2022/07/10 17:53:23;;;;;;;3.03;2.00;;;21.60;61.20;;;;;;10554677;28;20228;-82
2022/07/10 17:58:25;;;;;;;3.60;1.83;;;21.50;59.40;;;;;;10555574;28;20195;-82
2022/07/10 18:03:28;;;;;;;5.90;3.10;;;21.50;60.40;;;;;;10545525;28;20240;-82
2022/07/10 18:08:31;;;;;;;2.10;1.90;;;21.60;59.60;;;;;;10551239;28;20249;-82
2022/07/10 18:13:33;;;;;;;3.20;2.60;;;21.60;59.60;;;;;;10562777;28;20709;-82
2022/07/10 18:18:37;;;;;;;4.10;3.73;;;21.70;61.30;;;;;;10550615;28;20205;-82
2022/07/10 18:23:40;;;;;;;2.83;2.33;;;21.70;61.40;;;;;;10541350;28;20215;-82
2022/07/10 18:28:43;;;;;;;2.10;1.87;;;21.80;59.90;;;;;;10562358;28;20217;-81
2022/07/10 18:39:21;;;;;;;2.83;2.30;;;21.80;60.30;;;;;;10420866;28;20210;-80
2022/07/10 18:44:23;;;;;;;2.80;2.40;;;21.70;61.30;;;;;;10522945;22;20328;-79
2022/07/10 18:49:26;;;;;;;3.63;1.90;;;21.60;60.70;;;;;;10547181;28;20231;-80
2022/07/10 18:54:28;;;;;;;2.13;1.93;;;21.50;61.40;;;;;;10531243;28;20266;-79
2022/07/10 18:59:30;;;;;;;2.83;2.17;;;21.40;62.20;;;;;;10521965;28;20200;-79
2022/07/10 19:04:34;;;;;;;2.23;2.03;;;21.30;62.50;;;;;;10529047;28;20654;-79
2022/07/10 19:09:36;;;;;;;3.63;2.20;;;21.20;61.90;;;;;;10542274;28;20652;-79
2022/07/10 19:14:38;;;;;;;2.53;2.33;;;21.10;63.60;;;;;;10515309;28;20216;-79
2022/07/10 19:19:42;;;;;;;3.93;2.53;;;21.00;62.90;;;;;;10534163;28;20295;-79
2022/07/10 19:24:44;;;;;;;2.57;1.80;;;21.00;64.60;;;;;;10535933;28;20284;-79
2022/07/10 19:29:46;;;;;;;1.70;1.60;;;20.90;64.70;;;;;;10538181;28;20199;-82
2022/07/10 19:34:53;;;;;;;2.03;1.87;;;20.80;64.50;;;;;;10540120;28;20275;-81
2022/07/10 19:39:55;;;;;;;2.50;1.90;;;20.80;67.40;;;;;;10529309;28;20200;-81
2022/07/10 19:44:57;;;;;;;2.20;2.00;;;20.70;68.10;;;;;;10521806;28;20235;-82
2022/07/10 19:50:00;;;;;;;2.57;2.37;;;20.70;69.30;;;;;;10528161;28;20193;-81
2022/07/10 19:55:04;;;;;;;2.70;2.07;;;20.70;68.30;;;;;;10534343;28;20227;-80
2022/07/10 20:00:12;;;;;;;2.27;1.97;;;20.60;70.30;;;;;;10513164;28;20192;-78
2022/07/10 20:05:18;;;;;;;2.20;2.03;;;20.60;68.90;;;;;;10500978;28;20592;-79
2022/07/10 20:10:25;;;;;;;2.63;2.20;;;20.60;69.40;;;;;;10495247;28;20192;-78
2022/07/10 20:15:27;;;;;;;6.20;2.33;;;20.50;71.30;;;;;;10499238;28;20227;-79
2022/07/10 20:20:31;;;;;;;2.20;2.00;;;20.50;69.70;;;;;;10495938;28;20261;-80
2022/07/10 20:25:33;;;;;;;3.40;2.10;;;20.40;69.40;;;;;;10521400;28;20208;-79
2022/07/10 20:30:36;;;;;;;2.50;1.80;;;20.40;68.90;;;;;;10532636;28;20200;-80
2022/07/10 20:35:39;;;;;;;3.57;2.17;;;20.40;70.70;;;;;;10524431;28;20626;-79
2022/07/10 20:40:41;;;;;;;2.63;2.10;;;20.30;70.40;;;;;;10535460;28;20197;-80
2022/07/10 20:45:43;;;;;;;2.30;2.10;;;20.30;70.60;;;;;;10511177;28;20274;-82
2022/07/10 20:50:47;;;;;;;5.33;2.10;;;20.20;70.20;;;;;;10539899;28;20197;-78
2022/07/10 20:55:49;;;;;;;2.20;2.10;;;20.20;69.40;;;;;;10523659;28;20731;-83
2022/07/10 21:00:52;;;;;;;2.90;2.23;;;20.10;69.50;;;;;;10534942;28;20223;-83
2022/07/10 21:05:55;;;;;;;2.30;2.10;;;19.90;70.80;;;;;;10539339;28;20217;-79
2022/07/10 21:10:57;;;;;;;2.27;1.90;;;19.80;70.20;;;;;;10520884;28;20226;-81
2022/07/10 21:16:00;;;;;;;3.43;2.13;;;19.70;71.50;;;;;;10534504;28;20224;-79
2022/07/10 21:21:03;;;;;;;2.83;2.50;;;19.50;71.50;;;;;;10507154;28;20203;-80
2022/07/10 21:26:06;;;;;;;2.30;2.10;;;19.40;72.10;;;;;;10507106;28;20243;-80
2022/07/10 21:31:09;;;;;;;2.03;1.93;;;19.40;72.40;;;;;;10538174;28;20575;-81
2022/07/10 21:36:12;;;;;;;2.40;2.20;;;19.30;73.90;;;;;;10514612;28;20231;-81
2022/07/10 21:41:14;;;;;;;4.27;2.10;;;19.30;73.40;;;;;;10513008;28;20219;-80
2022/07/10 21:46:16;;;;;;;7.20;2.20;;;19.20;74.10;;;;;;10532833;28;20311;-81
2022/07/10 21:51:20;;;;;;;4.87;1.90;;;19.20;74.10;;;;;;10537720;28;20290;-80
2022/07/10 21:56:22;;;;;;;2.70;2.50;;;19.20;73.90;;;;;;10524012;28;20227;-79
2022/07/10 22:01:24;;;;;;;3.27;2.20;;;19.20;75.60;;;;;;10539655;28;20664;-79
2022/07/10 22:06:28;;;;;;;2.00;1.90;;;19.10;76.30;;;;;;10547315;28;20231;-80
2022/07/10 22:11:30;;;;;;;2.67;2.47;;;19.10;74.70;;;;;;10527521;28;20199;-80
2022/07/10 22:16:32;;;;;;;2.20;2.00;;;19.10;75.60;;;;;;10525878;28;20277;-79
2022/07/10 22:21:36;;;;;;;1.80;1.70;;;19.10;76.40;;;;;;10545472;28;20204;-83
2022/07/10 22:26:38;;;;;;;2.27;2.17;;;19.00;75.40;;;;;;10545553;28;20290;-82
2022/07/10 22:31:40;;;;;;;2.10;2.00;;;18.90;75.50;;;;;;10547146;28;20249;-82
2022/07/10 22:36:43;;;;;;;2.13;2.03;;;18.80;77.10;;;;;;10543366;28;20224;-82
2022/07/10 22:41:45;;;;;;;2.63;2.13;;;18.80;75.90;;;;;;10544643;28;20196;-81
2022/07/10 22:46:48;;;;;;;1.70;1.60;;;18.80;75.70;;;;;;10520194;28;20252;-83
2022/07/10 22:51:52;;;;;;;2.80;1.90;;;18.70;77.10;;;;;;10509456;28;20224;-79
2022/07/10 22:56:54;;;;;;;3.00;2.20;;;18.60;78.20;;;;;;10516750;28;20281;-80
2022/07/10 23:01:56;;;;;;;1.80;1.70;;;18.60;78.60;;;;;;10512470;28;20284;-81
2022/07/10 23:07:00;;;;;;;2.67;1.80;;;18.60;78.50;;;;;;10517831;28;20216;-82
2022/07/10 23:12:02;;;;;;;1.80;1.70;;;18.60;77.90;;;;;;10518311;28;20279;-79
2022/07/10 23:17:05;;;;;;;5.50;1.73;;;18.60;78.60;;;;;;10517372;28;20220;-80
2022/07/10 23:22:08;;;;;;;1.80;1.70;;;18.50;78.70;;;;;;10513609;28;20204;-81
2022/07/10 23:27:10;;;;;;;1.90;1.60;;;18.50;79.90;;;;;;10513958;28;20548;-78
2022/07/10 23:32:12;;;;;;;2.23;2.03;;;18.50;78.70;;;;;;10521143;28;20210;-80
2022/07/10 23:37:16;;;;;;;2.10;1.70;;;18.40;79.50;;;;;;10511769;28;20223;-79
2022/07/10 23:42:18;;;;;;;2.00;1.70;;;18.40;80.30;;;;;;10521240;28;20206;-80
2022/07/10 23:47:20;;;;;;;2.23;1.70;;;18.40;80.50;;;;;;10515559;28;20275;-79
2022/07/10 23:52:23;;;;;;;1.60;1.50;;;18.50;79.80;;;;;;10507206;28;20204;-80
2022/07/10 23:57:26;;;;;;;1.63;1.53;;;18.50;78.50;;;;;;10515917;28;20674;-80
